createdAt,value
2023-04-01T00:01:03.044Z,99213.69
2023-04-01T00:03:30.262Z,99213.53
2023-04-01T00:05:58.914Z,99212.63
2023-04-01T00:08:27.097Z,99212.63
2023-04-01T00:10:54.151Z,99216.91
2023-04-01T00:13:20.690Z,99217.81
2023-04-01T00:15:47.556Z,99215.16
2023-04-01T00:18:14.715Z,99221.25
2023-04-01T00:20:46.054Z,99215.22
2023-04-01T00:23:12.597Z,99216.00
2023-04-01T00:25:39.016Z,99215.16
2023-04-01T00:28:05.385Z,99211.53
2023-04-01T00:30:31.774Z,99219.47
2023-04-01T00:32:58.312Z,99217.00
2023-04-01T00:35:24.827Z,99221.38
2023-04-01T00:37:51.754Z,99217.22
2023-04-01T00:40:36.925Z,99218.09
2023-04-01T00:43:04.187Z,99221.38
2023-04-01T00:45:32.537Z,99218.06
2023-04-01T00:48:02.429Z,99222.28
2023-04-01T00:50:30.612Z,99225.28
2023-04-01T00:52:58.009Z,99224.34
2023-04-01T00:55:25.935Z,99219.25
2023-04-01T00:57:54.815Z,99215.13
2023-04-01T01:00:22.439Z,99220.09
2023-04-01T01:02:51.693Z,99221.81
2023-04-01T01:05:22.314Z,99229.50
2023-04-01T01:08:32.186Z,99220.28
2023-04-01T01:10:58.521Z,99222.88
2023-04-01T01:13:39.936Z,99225.53
2023-04-01T01:16:24.804Z,99225.41
2023-04-01T01:19:27.351Z,99229.59
2023-04-01T01:22:22.933Z,99222.88
2023-04-01T01:24:55.592Z,99227.41
2023-04-01T01:27:22.843Z,99230.78
2023-04-01T01:30:02.552Z,99229.81
2023-04-01T01:32:41.112Z,99227.50
2023-04-01T01:35:21.072Z,99218.88
2023-04-01T01:37:50.843Z,99231.63
2023-04-01T01:40:18.442Z,99227.97
2023-04-01T01:42:51.141Z,99229.03
2023-04-01T01:45:22.047Z,99232.41
2023-04-01T01:47:50.815Z,99231.06
2023-04-01T01:50:18.661Z,99235.19
2023-04-01T01:52:45.220Z,99237.97
2023-04-01T01:55:30.961Z,99233.56
2023-04-01T01:58:06.965Z,99243.03
2023-04-01T02:00:34.896Z,99238.53
2023-04-01T02:03:02.015Z,99244.53
2023-04-01T02:05:31.600Z,99237.72
2023-04-01T02:08:12.867Z,99243.03
2023-04-01T02:10:46.383Z,99241.31
2023-04-01T02:13:28.231Z,99241.13
2023-04-01T02:16:01.050Z,99245.88
2023-04-01T02:18:29.964Z,99249.38
2023-04-01T02:21:00.029Z,99252.94
2023-04-01T02:23:27.606Z,99251.72
2023-04-01T02:25:54.553Z,99247.59
2023-04-01T02:28:21.427Z,99236.88
2023-04-01T02:30:49.370Z,99245.53
2023-04-01T02:33:16.265Z,99246.56
2023-04-01T02:35:42.821Z,99246.66
2023-04-01T02:38:09.507Z,99256.84
2023-04-01T02:40:51.298Z,99250.06
2023-04-01T02:43:18.521Z,99259.91
2023-04-01T02:45:44.830Z,99264.84
2023-04-01T02:48:11.433Z,99259.53
2023-04-01T02:50:37.793Z,99266.44
2023-04-01T02:53:04.704Z,99259.56
2023-04-01T02:55:32.069Z,99262.97
2023-04-01T02:57:58.915Z,99264.53
2023-04-01T03:00:25.959Z,99268.81
2023-04-01T03:02:52.893Z,99264.53
2023-04-01T03:05:19.895Z,99268.94
2023-04-01T03:07:46.694Z,99271.59
2023-04-01T03:10:13.256Z,99279.66
2023-04-01T03:12:39.692Z,99275.28
2023-04-01T03:15:10.752Z,99280.63
2023-04-01T03:17:39.110Z,99278.81
2023-04-01T03:20:06.867Z,99285.19
2023-04-01T03:22:33.169Z,99276.22
2023-04-01T03:24:59.456Z,99281.53
2023-04-01T03:27:25.775Z,99283.06
2023-04-01T03:29:52.157Z,99284.22
2023-04-01T03:32:18.545Z,99291.69
2023-04-01T03:34:44.831Z,99288.34
2023-04-01T03:37:11.383Z,99284.84
2023-04-01T03:39:37.685Z,99280.69
2023-04-01T03:42:04.144Z,99289.31
2023-04-01T03:44:34.308Z,99291.09
2023-04-01T03:47:01.488Z,99282.44
2023-04-01T03:49:27.994Z,99294.53
2023-04-01T03:51:54.292Z,99296.63
2023-04-01T03:54:21.083Z,99290.50
2023-04-01T03:56:47.795Z,99297.31
2023-04-01T03:59:14.500Z,99304.94
2023-04-01T04:01:41.095Z,99296.56
2023-04-01T04:04:07.758Z,99299.13
2023-04-01T04:06:34.435Z,99298.16
2023-04-01T04:09:00.802Z,99300.06
2023-04-01T04:11:27.118Z,99299.25
2023-04-01T04:13:54.067Z,99303.63
2023-04-01T04:16:21.137Z,99305.16
2023-04-01T04:18:47.499Z,99311.94
2023-04-01T04:21:15.841Z,99308.44
2023-04-01T04:23:42.876Z,99314.75
2023-04-01T04:26:12.291Z,99322.63
2023-04-01T04:28:38.966Z,99321.84
2023-04-01T04:31:06.246Z,99325.50
2023-04-01T04:33:33.101Z,99337.59
2023-04-01T04:36:00.290Z,99341.72
2023-04-01T04:38:27.495Z,99341.88
2023-04-01T04:40:53.795Z,99344.94
2023-04-01T04:43:20.425Z,99348.66
2023-04-01T04:45:46.714Z,99354.16
2023-04-01T04:48:19.173Z,99359.75
2023-04-01T04:50:47.706Z,99367.78
2023-04-01T04:53:15.408Z,99367.16
2023-04-01T04:55:49.411Z,99370.03
2023-04-01T04:58:16.256Z,99371.63
2023-04-01T05:00:42.585Z,99376.81
2023-04-01T05:03:09.894Z,99378.03
2023-04-01T05:05:36.262Z,99378.13
2023-04-01T05:08:02.941Z,99391.09
2023-04-01T05:10:29.229Z,99385.00
2023-04-01T05:12:55.743Z,99389.75
2023-04-01T05:15:22.124Z,99396.88
2023-04-01T05:17:48.436Z,99397.72
2023-04-01T05:20:15.725Z,99399.53
2023-04-01T05:22:42.214Z,99411.75
2023-04-01T05:25:08.627Z,99408.25
2023-04-01T05:27:35.322Z,99412.53
2023-04-01T05:30:02.024Z,99413.75
2023-04-01T05:32:28.438Z,99411.34
2023-04-01T05:34:54.885Z,99420.81
2023-04-01T05:37:21.174Z,99426.69
2023-04-01T05:39:47.509Z,99426.81
2023-04-01T05:42:14.206Z,99433.84
2023-04-01T05:44:40.709Z,99441.66
2023-04-01T05:47:07.025Z,99438.69
2023-04-01T05:49:34.680Z,99439.53
2023-04-01T05:52:00.953Z,99439.44
2023-04-01T05:54:27.308Z,99449.91
2023-04-01T05:56:53.674Z,99454.16
2023-04-01T05:59:20.121Z,99458.59
2023-04-01T06:01:46.508Z,99452.72
2023-04-01T06:04:17.895Z,99454.53
2023-04-01T06:06:45.134Z,99462.28
2023-04-01T06:09:17.695Z,99470.06
2023-04-01T06:12:08.524Z,99470.13
2023-04-01T06:14:40.927Z,99470.06
2023-04-01T06:17:24.250Z,99488.41
2023-04-01T06:20:15.631Z,99487.72
2023-04-01T06:23:03.926Z,99487.03
2023-04-01T06:25:56.240Z,99491.56
2023-04-01T06:28:34.817Z,99491.47
2023-04-01T06:31:27.597Z,99493.94
2023-04-01T06:34:18.343Z,99496.47
2023-04-01T06:37:00.632Z,99506.03
2023-04-01T06:40:21.540Z,99512.06
2023-04-01T06:43:07.719Z,99515.44
2023-04-01T06:46:03.744Z,99521.38
2023-04-01T06:48:48.490Z,99522.50
2023-04-01T06:51:27.255Z,99523.53
2023-04-01T06:54:10.107Z,99528.63
2023-04-01T06:56:41.268Z,99536.34
2023-04-01T06:59:18.448Z,99539.88
2023-04-01T07:01:54.741Z,99544.38
2023-04-01T07:04:32.162Z,99541.56
2023-04-01T07:07:02.610Z,99549.44
2023-04-01T07:09:35.548Z,99558.88
2023-04-01T07:12:10.463Z,99558.97
2023-04-01T07:14:42.238Z,99560.72
2023-04-01T07:17:28.513Z,99568.59
2023-04-01T07:20:18.034Z,99572.00
2023-04-01T07:22:49.210Z,99572.84
2023-04-01T07:25:19.467Z,99568.72
2023-04-01T07:27:46.559Z,99583.28
2023-04-01T07:30:19.037Z,99587.53
2023-04-01T07:32:57.543Z,99595.97
2023-04-01T07:35:47.753Z,99598.00
2023-04-01T07:38:29.185Z,99612.69
2023-04-01T07:41:13.609Z,99609.31
2023-04-01T07:43:54.456Z,99607.72
2023-04-01T07:46:56.079Z,99623.28
2023-04-01T07:49:31.902Z,99634.44
2023-04-01T07:52:05.706Z,99632.75
2023-04-01T07:54:54.672Z,99631.91
2023-04-01T07:57:52.579Z,99642.94
2023-04-01T08:00:37.989Z,99643.84
2023-04-01T08:03:34.956Z,99653.25
2023-04-01T08:06:11.566Z,99660.38
2023-04-01T08:08:46.121Z,99654.38
2023-04-01T08:11:21.047Z,99661.19
2023-04-01T08:14:07.763Z,99663.59
2023-04-01T08:17:01.525Z,99668.66
2023-04-01T08:19:58.456Z,99666.88
2023-04-01T08:22:30.211Z,99669.59
2023-04-01T08:25:00.828Z,99677.47
2023-04-01T08:27:36.365Z,99682.69
2023-04-01T08:30:04.998Z,99686.97
2023-04-01T08:32:37.205Z,99694.59
2023-04-01T08:35:21.196Z,99694.59
2023-04-01T08:37:51.249Z,99701.41
2023-04-01T08:40:41.287Z,99701.41
2023-04-01T08:43:46.989Z,99704.84
2023-04-01T08:46:36.592Z,99710.81
2023-04-01T08:49:12.082Z,99713.47
2023-04-01T08:52:03.047Z,99722.09
2023-04-01T08:54:50.680Z,99725.53
2023-04-01T08:57:25.760Z,99727.19
2023-04-01T09:00:09.412Z,99726.31
2023-04-01T09:03:15.934Z,99723.88
2023-04-01T09:06:11.376Z,99724.03
2023-04-01T09:08:46.180Z,99731.69
2023-04-01T09:11:26.768Z,99735.00
2023-04-01T09:14:22.490Z,99737.69
2023-04-01T09:16:51.681Z,99740.97
2023-04-01T09:19:42.091Z,99742.69
2023-04-01T09:22:24.722Z,99748.94
2023-04-01T09:25:18.392Z,99748.91
2023-04-01T09:27:58.517Z,99762.63
2023-04-01T09:30:45.633Z,99765.28
2023-04-01T09:33:50.158Z,99769.38
2023-04-01T09:36:56.895Z,99770.97
2023-04-01T09:39:38.061Z,99773.53
2023-04-01T09:42:42.545Z,99778.59
2023-04-01T09:45:47.118Z,99782.84
2023-04-01T09:48:47.807Z,99792.38
2023-04-01T09:51:45.323Z,99801.03
2023-04-01T09:54:33.624Z,99803.84
2023-04-01T09:57:08.742Z,99801.19
2023-04-01T09:59:59.296Z,99812.22
2023-04-01T10:03:09.454Z,99811.28
2023-04-01T10:05:38.580Z,99819.16
2023-04-01T10:08:42.568Z,99803.72
2023-04-01T10:11:50.449Z,99818.31
2023-04-01T10:14:58.494Z,99822.63
2023-04-01T10:17:52.713Z,99825.31
2023-04-01T10:20:44.081Z,99824.41
2023-04-01T10:23:30.648Z,99835.44
2023-04-01T10:26:19.229Z,99839.66
2023-04-01T10:29:14.739Z,99834.59
2023-04-01T10:31:58.766Z,99842.41
2023-04-01T10:34:47.001Z,99848.34
2023-04-01T10:37:28.949Z,99850.03
2023-04-01T10:40:13.773Z,99850.88
2023-04-01T10:43:16.230Z,99851.66
2023-04-01T10:46:07.580Z,99853.53
2023-04-01T10:49:25.874Z,99858.75
2023-04-01T10:52:06.402Z,99870.78
2023-04-01T10:54:47.108Z,99874.25
2023-04-01T10:57:46.369Z,99877.81
2023-04-01T11:00:24.711Z,99875.06
2023-04-01T11:03:06.349Z,99883.69
2023-04-01T11:06:09.537Z,99885.38
2023-04-01T11:09:07.901Z,99884.41
2023-04-01T11:12:08.213Z,99892.28
2023-04-01T11:14:56.573Z,99898.28
2023-04-01T11:18:00.385Z,99906.97
2023-04-01T11:20:48.030Z,99910.53
2023-04-01T11:23:18.849Z,99912.25
2023-04-01T11:26:17.388Z,99923.38
2023-04-01T11:29:07.725Z,99924.34
2023-04-01T11:31:58.845Z,99920.09
2023-04-01T11:34:47.599Z,99934.13
2023-04-01T11:37:35.545Z,99931.50
2023-04-01T11:40:35.333Z,99935.94
2023-04-01T11:43:30.085Z,99938.47
2023-04-01T11:46:12.782Z,99951.34
2023-04-01T11:49:08.440Z,99953.91
2023-04-01T11:51:56.536Z,99954.63
2023-04-01T11:54:52.254Z,99959.09
2023-04-01T11:57:56.382Z,99963.38
2023-04-01T12:00:35.991Z,99975.41
2023-04-01T12:03:30.675Z,99968.56
2023-04-01T12:06:20.037Z,99967.75
2023-04-01T12:09:11.318Z,99973.03
2023-04-01T12:11:58.565Z,99986.81
2023-04-01T12:14:27.864Z,99988.53
2023-04-01T12:17:28.201Z,99988.53
2023-04-01T12:20:12.993Z,99995.34
2023-04-01T12:22:54.382Z,99996.22
2023-04-01T12:25:42.277Z,100010.84
2023-04-01T12:28:21.321Z,100007.41
2023-04-01T12:31:16.186Z,100009.06
2023-04-01T12:33:48.182Z,100013.41
2023-04-01T12:36:41.400Z,100011.53
2023-04-01T12:39:23.868Z,100014.25
2023-04-01T12:42:03.640Z,100027.13
2023-04-01T12:44:52.087Z,100024.47
2023-04-01T12:47:53.482Z,100032.28
2023-04-01T12:50:27.888Z,100029.78
2023-04-01T12:53:34.922Z,100046.19
2023-04-01T12:56:04.745Z,100042.75
2023-04-01T12:59:06.318Z,100054.84
2023-04-01T13:02:01.109Z,100054.00
2023-04-01T13:05:05.361Z,100056.56
2023-04-01T13:07:38.341Z,100061.69
2023-04-01T13:10:13.706Z,100064.34
2023-04-01T13:12:58.645Z,100078.03
2023-04-01T13:15:30.401Z,100078.91
2023-04-01T13:18:05.994Z,100079.81
2023-04-01T13:20:45.535Z,100082.44
2023-04-01T13:23:25.696Z,100092.84
2023-04-01T13:26:14.257Z,100099.72
2023-04-01T13:29:10.258Z,100097.13
2023-04-01T13:31:54.606Z,100112.66
2023-04-01T13:34:20.845Z,100101.53
2023-04-01T13:37:19.020Z,100105.75
2023-04-01T13:40:14.497Z,100110.03
2023-04-01T13:42:50.688Z,100119.53
2023-04-01T13:45:24.300Z,100123.03
2023-04-01T13:48:16.030Z,100127.31
2023-04-01T13:50:54.548Z,100127.31
2023-04-01T13:53:31.568Z,100139.38
2023-04-01T13:56:34.444Z,100135.06
2023-04-01T13:59:38.773Z,100141.09
2023-04-01T14:02:42.936Z,100154.00
2023-04-01T14:05:41.879Z,100147.94
2023-04-01T14:08:18.272Z,100154.84
2023-04-01T14:11:08.418Z,100160.88
2023-04-01T14:14:01.220Z,100156.56
2023-04-01T14:16:43.593Z,100171.22
2023-04-01T14:19:29.729Z,100182.41
2023-04-01T14:22:28.096Z,100175.53
2023-04-01T14:24:57.281Z,100182.44
2023-04-01T14:27:42.169Z,100188.44
2023-04-01T14:30:46.116Z,100191.00
2023-04-01T14:33:26.722Z,100189.28
2023-04-01T14:36:11.948Z,100192.72
2023-04-01T14:38:53.548Z,100199.63
2023-04-01T14:41:27.120Z,100199.63
2023-04-01T14:44:24.695Z,100206.50
2023-04-01T14:47:24.454Z,100205.63
2023-04-01T14:49:54.760Z,100215.09
2023-04-01T14:52:28.927Z,100206.53
2023-04-01T14:54:57.328Z,100223.72
2023-04-01T14:57:29.295Z,100216.00
2023-04-01T15:00:14.397Z,100223.72
2023-04-01T15:02:53.228Z,100221.16
2023-04-01T15:05:51.453Z,100234.06
2023-04-01T15:08:31.531Z,100236.63
2023-04-01T15:11:16.204Z,100246.09
2023-04-01T15:13:59.792Z,100243.53
2023-04-01T15:16:51.165Z,100246.09
2023-04-01T15:20:01.277Z,100247.81
2023-04-01T15:22:30.533Z,100260.72
2023-04-01T15:25:22.244Z,100265.88
2023-04-01T15:28:03.822Z,100270.19
2023-04-01T15:30:36.140Z,100279.66
2023-04-01T15:33:29.565Z,100285.69
2023-04-01T15:36:07.053Z,100287.38
2023-04-01T15:38:50.151Z,100291.69
2023-04-01T15:41:41.398Z,100301.13
2023-04-01T15:45:04.813Z,100298.56
2023-04-01T15:47:55.841Z,100311.47
2023-04-01T15:50:36.277Z,100315.75
2023-04-01T15:53:24.509Z,100314.88
2023-04-01T15:56:07.440Z,100319.19
2023-04-01T15:58:55.756Z,100318.34
2023-04-01T16:01:22.100Z,100332.09
2023-04-01T16:04:12.899Z,100337.25
2023-04-01T16:06:59.224Z,100344.13
2023-04-01T16:09:40.006Z,100338.13
2023-04-01T16:12:18.764Z,100344.97
2023-04-01T16:14:58.362Z,100353.59
2023-04-01T16:17:30.600Z,100344.94
2023-04-01T16:20:03.822Z,100359.56
2023-04-01T16:22:40.862Z,100369.84
2023-04-01T16:25:19.335Z,100359.53
2023-04-01T16:28:15.063Z,100368.94
2023-04-01T16:31:05.878Z,100364.66
2023-04-01T16:33:40.975Z,100380.94
2023-04-01T16:36:25.626Z,100373.22
2023-04-01T16:38:51.862Z,100384.38
2023-04-01T16:41:24.700Z,100386.09
2023-04-01T16:43:57.044Z,100396.44
2023-04-01T16:46:41.199Z,100409.31
2023-04-01T16:49:13.888Z,100392.97
2023-04-01T16:52:11.976Z,100420.44
2023-04-01T16:54:48.669Z,100413.56
2023-04-01T16:57:20.569Z,100422.19
2023-04-01T17:00:04.344Z,100431.59
2023-04-01T17:02:44.020Z,100433.34
2023-04-01T17:05:16.921Z,100439.34
2023-04-01T17:08:18.509Z,100444.47
2023-04-01T17:11:23.698Z,100448.81
2023-04-01T17:14:04.627Z,100453.13
2023-04-01T17:16:49.224Z,100465.09
2023-04-01T17:19:37.376Z,100472.81
2023-04-01T17:22:18.370Z,100473.69
2023-04-01T17:24:53.737Z,100477.09
2023-04-01T17:27:38.135Z,100484.81
2023-04-01T17:30:23.356Z,100491.72
2023-04-01T17:33:11.624Z,100487.34
2023-04-01T17:36:09.668Z,100494.22
2023-04-01T17:39:10.175Z,100500.31
2023-04-01T17:41:51.698Z,100504.56
2023-04-01T17:44:41.279Z,100514.03
2023-04-01T17:47:28.176Z,100520.88
2023-04-01T17:50:08.110Z,100532.03
2023-04-01T17:52:43.493Z,100536.28
2023-04-01T17:55:18.781Z,100540.63
2023-04-01T17:57:53.508Z,100551.00
2023-04-01T18:00:30.134Z,100563.00
2023-04-01T18:03:25.015Z,100562.09
2023-04-01T18:06:08.696Z,100568.13
2023-04-01T18:08:56.766Z,100574.06
2023-04-01T18:11:41.806Z,100582.63
2023-04-01T18:14:31.083Z,100599.78
2023-04-01T18:17:16.404Z,100595.38
2023-04-01T18:20:20.437Z,100600.44
2023-04-01T18:22:55.354Z,100610.69
2023-04-01T18:25:37.564Z,100608.91
2023-04-01T18:28:36.362Z,100611.53
2023-04-01T18:31:02.738Z,100617.41
2023-04-01T18:33:43.801Z,100626.84
2023-04-01T18:36:59.774Z,100636.25
2023-04-01T18:39:40.999Z,100636.25
2023-04-01T18:42:44.868Z,100643.03
2023-04-01T18:45:30.084Z,100641.31
2023-04-01T18:48:21.387Z,100649.00
2023-04-01T18:50:58.225Z,100660.25
2023-04-01T18:53:47.952Z,100674.88
2023-04-01T18:56:28.606Z,100665.34
2023-04-01T18:59:17.891Z,100665.28
2023-04-01T19:01:56.563Z,100665.28
2023-04-01T19:04:41.237Z,100680.78
2023-04-01T19:07:42.155Z,100691.97
2023-04-01T19:10:33.059Z,100686.81
2023-04-01T19:13:20.580Z,100698.75
2023-04-01T19:16:10.029Z,100711.56
2023-04-01T19:18:57.374Z,100701.94
2023-04-01T19:21:39.240Z,100706.16
2023-04-01T19:24:18.150Z,100718.22
2023-04-01T19:27:13.698Z,100725.06
2023-04-01T19:30:05.439Z,100724.16
2023-04-01T19:32:58.252Z,100725.03
2023-04-01T19:35:27.539Z,100733.47
2023-04-01T19:38:06.246Z,100735.28
2023-04-01T19:40:40.893Z,100748.09
2023-04-01T19:43:19.823Z,100746.34
2023-04-01T19:46:29.428Z,100748.91
2023-04-01T19:49:26.540Z,100757.47
2023-04-01T19:52:21.025Z,100767.81
2023-04-01T19:55:31.469Z,100774.69
2023-04-01T19:58:17.501Z,100790.94
2023-04-01T20:00:48.482Z,100790.88
2023-04-01T20:03:32.881Z,100784.59
2023-04-01T20:06:23.968Z,100799.81
2023-04-01T20:09:23.173Z,100786.81
2023-04-01T20:11:58.541Z,100804.59
2023-04-01T20:14:37.412Z,100810.44
2023-04-01T20:17:27.484Z,100810.38
2023-04-01T20:20:09.357Z,100821.47
2023-04-01T20:22:35.673Z,100832.53
2023-04-01T20:25:20.810Z,100829.88
2023-04-01T20:27:56.334Z,100847.78
2023-04-01T20:31:02.624Z,100848.53
2023-04-01T20:34:04.503Z,100862.19
2023-04-01T20:36:55.569Z,100868.09
2023-04-01T20:39:41.471Z,100867.06
2023-04-01T20:42:35.802Z,100872.19
2023-04-01T20:45:19.605Z,100876.50
2023-04-01T20:48:23.713Z,100882.44
2023-04-01T20:50:55.102Z,100890.06
2023-04-01T20:53:29.336Z,100893.47
2023-04-01T20:56:29.731Z,100903.75
2023-04-01T20:59:14.878Z,100903.88
2023-04-01T21:02:12.881Z,100906.50
2023-04-01T21:05:17.064Z,100912.44
2023-04-01T21:07:49.525Z,100919.22
2023-04-01T21:10:34.171Z,100925.03
2023-04-01T21:13:19.091Z,100936.09
2023-04-01T21:15:54.456Z,100940.22
2023-04-01T21:18:39.724Z,100938.38
2023-04-01T21:21:25.651Z,100949.53
2023-04-01T21:24:10.528Z,100952.06
2023-04-01T21:26:46.166Z,100950.31
2023-04-01T21:29:32.896Z,100957.06
2023-04-01T21:32:21.286Z,100961.28
2023-04-01T21:35:12.456Z,100963.06
2023-04-01T21:37:44.677Z,100963.00
2023-04-01T21:40:32.374Z,100974.88
2023-04-01T21:43:18.761Z,100975.69
2023-04-01T21:46:33.664Z,100978.13
2023-04-01T21:49:22.769Z,100982.38
2023-04-01T21:52:03.030Z,100980.59
2023-04-01T21:55:16.852Z,100987.34
2023-04-01T21:58:17.008Z,100996.78
2023-04-01T22:01:11.227Z,100993.19
2023-04-01T22:04:03.373Z,101004.25
2023-04-01T22:06:35.279Z,101013.72
2023-04-01T22:09:25.799Z,101009.38
2023-04-01T22:12:16.003Z,101018.78
2023-04-01T22:14:53.861Z,101020.50
2023-04-01T22:17:38.781Z,101026.41
2023-04-01T22:20:24.134Z,101033.03
2023-04-01T22:23:01.473Z,101039.00
2023-04-01T22:25:43.188Z,101050.97
2023-04-01T22:28:30.770Z,101055.16
2023-04-01T22:31:01.960Z,101055.94
2023-04-01T22:34:12.780Z,101060.06
2023-04-01T22:36:56.368Z,101066.91
2023-04-01T22:39:37.246Z,101081.38
2023-04-01T22:42:16.688Z,101081.44
2023-04-01T22:45:06.988Z,101083.13
2023-04-01T22:48:04.235Z,101085.69
2023-04-01T22:50:41.353Z,101091.59
2023-04-01T22:53:14.330Z,101096.75
2023-04-01T22:55:53.701Z,101100.09
2023-04-01T22:58:31.737Z,101102.81
2023-04-01T23:01:02.304Z,101102.81
2023-04-01T23:03:41.275Z,101106.16
2023-04-01T23:06:18.340Z,101113.16
2023-04-01T23:08:54.252Z,101116.47
2023-04-01T23:11:29.351Z,101119.66
2023-04-01T23:14:24.111Z,101120.63
2023-04-01T23:17:33.552Z,101122.22
2023-04-01T23:20:07.950Z,101130.84
2023-04-01T23:22:44.416Z,101131.03
2023-04-01T23:25:37.625Z,101136.25
2023-04-01T23:28:16.627Z,101139.63
2023-04-01T23:30:42.860Z,101141.41
2023-04-01T23:33:32.205Z,101154.38
2023-04-01T23:36:11.498Z,101153.53
2023-04-01T23:38:42.397Z,101150.09
2023-04-01T23:41:17.602Z,101152.72
2023-04-01T23:43:46.039Z,101160.50
2023-04-01T23:46:13.961Z,101163.88
2023-04-01T23:48:43.407Z,101170.81
2023-04-01T23:51:37.305Z,101163.00
2023-04-01T23:54:12.006Z,101177.53
2023-04-01T23:56:41.934Z,101174.03
2023-04-01T23:59:19.075Z,101179.06
